Cashiers, NC

12:13 AM EDT on September 01, 2015 (GMT -0400)
APRSWXNET | | Change Station
CLOSE
Current Station
Personal Weather Station
Location: Cashiers, NC
Elevation: 3900 ft
Nearby Weather Stations

Elev 3900 ft 35.08 °N, 83.08 °W | Updated 23 minutes ago

Clear
Clear
64 °F
Feels Like 64 °F
N
0
Wind Variable Wind from WSW
Gusts 1.0 mph

Today
High -- | Low -- °F
--% Chance of Precip.
Yesterday
High -- | Low -- °F
Precip. -- in
7:04 AM 7:59 PM
Waning Gibbous, 91% visible
Pressure 30.21 in
Visibility 10.0 miles
Clouds
Dew Point 61 °F
Humidity 89%
Rainfall in
Snow Depth Not available.
UV Not available.
Pollen 8.40 out of 12
Air Quality Not available.
Flu Activity Not available.
METAR K1A5 010355Z AUTO 00000KT 10SM 18/18 A3021 RMK AO2 T01790179
Pressure 30.21 in
Visibility 10.0 miles
Clouds
Dew Point 61 °F
Humidity 89%
Rainfall in
Snow Depth Not available.
UV Not available.
Pollen 8.40 out of 12
Air Quality Not available.
Flu Activity Not available.
METAR K1A5 010355Z AUTO 00000KT 10SM 18/18 A3021 RMK AO2 T01790179

10-Day Weather Forecast

×

Almanac

Astronomy

Sep. 01, 2015 Rise Set
Actual Time
Civil Twilight
Nautical Twilight
Astronomical Twilight
Moon
Length of Visible Light
Length of Day
Tomorrow will be .
, % of the Moon is Illuminated

Today's Extremes

State Highs State Lows

Community

WunderPhotos

Upload Photos

1,851,477 photos uploaded!

WunderBlogs® & News

Nearby

Air Quality

  Air Quality AQ Index Pollutant
Not available.

Snow Depth

Station Depth Elevation

Earthquake Activity

City Distance Mag. Time & Date
Minimum magnitude displayed is 2.5.

Coastal Water Temperatures

Place Temperature

Stations

Nearby Weather Stations

Station Location Temp. Windchill Dew Point Humidity Wind Precip. Elev Updated Type